Time;durP1;ratioP1;P1;durP2;ratioP2;P2;SDS_P1;SDS_P2;PMS_P1;PMS_P2;Temp;Humidity;BMP_temperature;BMP_pressure;BME280_temperature;BME280_humidity;BME280_pressure;Samples;Min_cycle;Max_cycle;Signal;HPM_P1;HPM_P2
2022/11/18 00:01:42;;;;;;;48.03;29.20;;;;;;;9.54;98.00;98675.84;5029814;28;19967;-37
2022/11/18 00:04:08;;;;;;;50.45;30.05;;;;;;;9.54;98.56;98672.41;5030001;28;20025;-37
2022/11/18 00:06:33;;;;;;;47.22;29.30;;;;;;;9.44;98.95;98669.44;5030740;28;20030;-37
2022/11/18 00:09:00;;;;;;;47.80;30.08;;;;;;;9.57;98.32;98664.75;5030163;28;20022;-37
2022/11/18 00:14:18;;;;;;;45.50;29.05;;;;;;;9.58;97.56;98671.72;5030734;28;20075;-37
2022/11/18 00:16:45;;;;;;;45.45;29.05;;;;;;;9.60;97.80;98668.84;5030324;28;20030;-38
2022/11/18 00:19:12;;;;;;;46.08;28.20;;;;;;;9.58;98.37;98674.38;5030352;28;20032;-37
2022/11/18 00:21:37;;;;;;;43.70;26.58;;;;;;;9.68;98.22;98679.16;5029906;28;20699;-37
2022/11/18 00:24:03;;;;;;;42.30;27.27;;;;;;;9.54;99.44;98675.06;5029953;28;20049;-37
2022/11/18 00:26:28;;;;;;;40.25;24.92;;;;;;;9.59;99.46;98680.47;5030039;28;20137;-37
2022/11/18 00:28:53;;;;;;;43.17;25.85;;;;;;;9.70;98.41;98677.06;5029950;28;20184;-37
2022/11/18 00:31:19;;;;;;;35.95;23.30;;;;;;;9.82;97.17;98677.13;5030183;28;20061;-36
2022/11/18 00:33:44;;;;;;;33.63;23.33;;;;;;;9.65;98.37;98666.31;5030215;28;20101;-36
2022/11/18 00:36:11;;;;;;;38.45;23.52;;;;;;;9.49;99.60;98674.91;5031842;28;20018;-36
2022/11/18 00:38:37;;;;;;;34.92;23.20;;;;;;;9.46;99.46;98676.16;5033018;28;20029;-37
2022/11/18 00:41:08;;;;;;;35.88;22.48;;;;;;;9.53;99.44;98673.41;5034043;28;20032;-37
2022/11/18 00:43:34;;;;;;;36.88;24.33;;;;;;;9.56;98.78;98676.44;5034186;28;20033;-37
2022/11/18 00:46:00;;;;;;;36.63;23.83;;;;;;;9.65;98.14;98681.44;5034004;28;20026;-37
2022/11/18 00:48:26;;;;;;;35.92;23.45;;;;;;;9.58;98.40;98676.22;5033749;28;20022;-36
2022/11/18 00:50:56;;;;;;;36.45;22.65;;;;;;;9.52;99.01;98677.91;5033838;28;20027;-37
2022/11/18 00:53:23;;;;;;;36.00;22.80;;;;;;;9.44;99.80;98678.19;5033851;28;20032;-37
2022/11/18 00:55:50;;;;;;;38.45;24.38;;;;;;;9.46;100.00;98677.97;5033635;28;20026;-37
2022/11/18 00:58:16;;;;;;;36.47;24.23;;;;;;;9.71;98.96;98677.88;5033950;28;20032;-37
2022/11/18 01:00:49;;;;;;;43.00;24.13;;;;;;;9.57;99.59;98680.69;5033772;28;20021;-36
2022/11/18 01:03:15;;;;;;;35.30;23.73;;;;;;;9.49;99.56;98680.22;5033613;28;20037;-37
2022/11/18 01:05:40;;;;;;;39.15;24.20;;;;;;;9.44;100.00;98685.38;5033638;28;20060;-37
2022/11/18 01:08:08;;;;;;;41.15;24.17;;;;;;;9.49;99.96;98683.66;5033527;28;20044;-37
2022/11/18 01:10:34;;;;;;;33.92;22.70;;;;;;;9.45;99.45;98697.63;5033698;28;20029;-37
2022/11/18 01:13:18;;;;;;;42.13;23.60;;;;;;;9.35;99.90;98693.63;5033701;28;20049;-37
2022/11/18 01:15:49;;;;;;;34.38;23.05;;;;;;;9.53;99.73;98686.69;5033347;28;20052;-37
2022/11/18 01:18:17;;;;;;;39.08;23.77;;;;;;;9.38;100.00;98679.91;5033370;28;20017;-36
2022/11/18 01:20:43;;;;;;;48.25;23.83;;;;;;;9.53;100.00;98676.88;5033202;28;20485;-37
2022/11/18 01:23:09;;;;;;;47.25;23.55;;;;;;;9.50;99.88;98682.66;5033313;28;20061;-36
2022/11/18 01:25:36;;;;;;;54.17;22.23;;;;;;;9.41;99.74;98670.69;5033143;28;20491;-37
2022/11/18 01:28:02;;;;;;;58.45;22.45;;;;;;;9.55;99.57;98674.00;5033036;28;20079;-37
2022/11/18 01:30:27;;;;;;;61.15;22.52;;;;;;;9.32;100.00;98678.13;5033070;28;20105;-37
2022/11/18 01:32:53;;;;;;;54.20;23.15;;;;;;;9.37;100.00;98682.81;5033274;28;20018;-36
2022/11/18 01:35:18;;;;;;;44.15;23.70;;;;;;;9.41;100.00;98677.84;5033051;28;20359;-37
2022/11/18 01:37:44;;;;;;;50.97;22.58;;;;;;;9.38;100.00;98668.47;5033097;28;20025;-37
2022/11/18 01:40:10;;;;;;;53.33;23.55;;;;;;;9.38;100.00;98671.94;5032964;28;20029;-36
2022/11/18 01:42:36;;;;;;;64.75;23.90;;;;;;;9.41;100.00;98673.34;5032722;28;20525;-37
2022/11/18 01:45:08;;;;;;;72.55;23.23;;;;;;;9.46;100.00;98676.16;5033077;28;20520;-37
2022/11/18 01:47:43;;;;;;;39.70;22.30;;;;;;;9.31;100.00;98671.22;5031808;28;20039;-36
2022/11/18 01:50:11;;;;;;;46.05;24.20;;;;;;;9.55;100.00;98674.00;5032196;28;20496;-37
2022/11/18 01:52:36;;;;;;;47.88;23.65;;;;;;;9.47;100.00;98669.81;5032302;28;20071;-37
2022/11/18 01:55:11;;;;;;;60.35;23.55;;;;;;;9.57;100.00;98670.06;5032606;28;20025;-37
2022/11/18 01:57:37;;;;;;;63.67;23.90;;;;;;;9.42;100.00;98663.53;5032679;28;20021;-37
2022/11/18 02:00:05;;;;;;;124.00;22.38;;;;;;;9.37;100.00;98665.00;5032685;28;20029;-37
2022/11/18 02:02:35;;;;;;;63.83;21.45;;;;;;;9.45;100.00;98665.75;5032566;28;20049;-37
2022/11/18 02:05:03;;;;;;;71.97;21.58;;;;;;;9.55;100.00;98661.53;5032226;28;20021;-36
2022/11/18 02:07:29;;;;;;;55.55;21.33;;;;;;;9.52;100.00;98669.94;5032744;28;20033;-37
2022/11/18 02:09:58;;;;;;;100.72;23.25;;;;;;;9.40;100.00;98666.41;5032469;28;20028;-37
2022/11/18 02:12:23;;;;;;;58.15;20.80;;;;;;;9.43;100.00;98663.31;5032455;28;20026;-37
2022/11/18 02:14:50;;;;;;;87.10;22.08;;;;;;;9.40;100.00;98674.38;5032388;28;20022;-37
2022/11/18 02:17:18;;;;;;;65.15;21.90;;;;;;;9.37;100.00;98670.31;5032246;28;20045;-37
2022/11/18 02:19:46;;;;;;;145.93;26.25;;;;;;;9.41;100.00;98668.03;5032285;28;20017;-37
2022/11/18 02:22:39;;;;;;;84.07;22.67;;;;;;;9.52;100.00;98672.63;5031938;28;20034;-37
2022/11/18 02:25:23;;;;;;;81.07;22.75;;;;;;;9.37;100.00;98669.53;5032007;28;20029;-37
2022/11/18 02:27:58;;;;;;;63.50;22.08;;;;;;;9.38;100.00;98671.13;5032144;28;20441;-37
2022/11/18 02:30:23;;;;;;;65.07;21.77;;;;;;;9.42;100.00;98668.84;5032008;28;20029;-36
2022/11/18 02:32:57;;;;;;;70.10;22.40;;;;;;;9.26;100.00;98655.13;5032082;28;20028;-37
2022/11/18 02:35:31;;;;;;;50.60;21.83;;;;;;;9.29;100.00;98657.34;5030847;28;20022;-37
2022/11/18 02:37:58;;;;;;;58.72;21.40;;;;;;;9.31;100.00;98657.94;5031956;28;20596;-37
2022/11/18 02:40:31;;;;;;;65.05;20.75;;;;;;;9.25;100.00;98656.16;5031732;28;20036;-37
2022/11/18 02:43:05;;;;;;;127.72;23.80;;;;;;;9.50;100.00;98665.88;5031888;28;20143;-37
2022/11/18 02:45:32;;;;;;;104.30;24.42;;;;;;;9.41;100.00;98664.59;5031915;28;20343;-36
2022/11/18 02:48:05;;;;;;;94.32;25.02;;;;;;;9.37;100.00;98659.69;5031553;28;20036;-36
2022/11/18 02:50:33;;;;;;;98.47;23.67;;;;;;;9.36;100.00;98652.75;5031746;28;20017;-37
2022/11/18 02:53:02;;;;;;;91.57;25.20;;;;;;;9.49;100.00;98657.09;5031465;28;20502;-36
2022/11/18 02:55:30;;;;;;;114.43;24.33;;;;;;;9.28;100.00;98645.09;5031533;28;20021;-36
2022/11/18 02:57:57;;;;;;;78.22;24.02;;;;;;;9.12;100.00;98650.97;5030503;28;20029;-36
2022/11/18 03:00:22;;;;;;;78.43;22.80;;;;;;;8.65;100.00;98638.19;5031403;28;20021;-37
2022/11/18 03:02:49;;;;;;;64.82;20.92;;;;;;;8.65;100.00;98656.75;5031364;28;20048;-36
2022/11/18 03:05:26;;;;;;;76.93;23.40;;;;;;;8.70;100.00;98659.56;5031574;28;20029;-36
2022/11/18 03:07:56;;;;;;;90.30;23.25;;;;;;;8.94;100.00;98659.75;5031186;28;20086;-36
2022/11/18 03:10:24;;;;;;;81.75;22.27;;;;;;;8.75;100.00;98662.34;5031720;28;20045;-36
2022/11/18 03:13:24;;;;;;;46.45;20.45;;;;;;;8.68;100.00;98658.16;5031552;28;20021;-36
2022/11/18 03:16:01;;;;;;;96.97;21.42;;;;;;;8.62;100.00;98657.16;5029885;28;20041;-36
2022/11/18 03:18:37;;;;;;;52.03;20.50;;;;;;;8.70;100.00;98658.75;5031077;28;20068;-36
2022/11/18 03:21:30;;;;;;;50.55;18.90;;;;;;;8.58;100.00;98659.44;5030975;28;20056;-36
2022/11/18 03:24:08;;;;;;;33.90;18.17;;;;;;;8.42;100.00;98654.69;5030773;28;20061;-36
2022/11/18 03:26:42;;;;;;;128.77;20.63;;;;;;;8.61;100.00;98660.88;5030980;28;20040;-36
2022/11/18 03:29:24;;;;;;;42.75;18.58;;;;;;;8.49;100.00;98658.13;5030867;28;20053;-36
2022/11/18 03:32:02;;;;;;;59.22;20.23;;;;;;;8.90;100.00;98656.72;5031088;28;20053;-37
2022/11/18 03:34:31;;;;;;;58.90;20.13;;;;;;;9.04;100.00;98662.69;5030537;28;20112;-37
2022/11/18 03:37:01;;;;;;;42.80;19.73;;;;;;;8.76;100.00;98657.88;5031366;28;20029;-38
2022/11/18 03:39:30;;;;;;;43.00;21.10;;;;;;;8.74;99.54;98666.06;5031368;28;20028;-37
2022/11/18 03:42:12;;;;;;;44.17;21.92;;;;;;;8.69;100.00;98667.75;5031253;28;20030;-37
2022/11/18 03:44:42;;;;;;;61.15;22.70;;;;;;;8.68;100.00;98666.94;5031184;28;20039;-38
2022/11/18 03:47:14;;;;;;;81.38;24.08;;;;;;;8.74;100.00;98675.88;5030838;28;20524;-36
2022/11/18 03:49:50;;;;;;;87.43;25.42;;;;;;;9.06;100.00;98689.03;5030592;28;20140;-36
2022/11/18 03:52:25;;;;;;;125.72;28.75;;;;;;;9.79;99.65;98690.88;5030642;28;20100;-37
2022/11/18 03:54:54;;;;;;;66.15;25.15;;;;;;;9.20;98.84;98695.84;5030564;28;20052;-37
2022/11/18 03:57:32;;;;;;;85.85;22.17;;;;;;;9.04;100.00;98704.34;5030016;28;20052;-37
2022/11/18 04:00:14;;;;;;;75.10;21.13;;;;;;;8.92;100.00;98699.75;5030321;28;20033;-37
2022/11/18 04:02:40;;;;;;;58.30;20.92;;;;;;;8.74;100.00;98689.94;5026502;28;20026;-37
2022/11/18 04:05:09;;;;;;;69.45;19.80;;;;;;;8.70;100.00;98690.56;5029886;28;20076;-36
2022/11/18 04:07:41;;;;;;;116.63;32.10;;;;;;;8.73;100.00;98683.00;5029785;28;20029;-36
2022/11/18 04:10:16;;;;;;;151.88;68.43;;;;;;;8.68;100.00;98690.81;5029769;28;20149;-37
2022/11/18 04:12:50;;;;;;;101.88;23.55;;;;;;;8.59;100.00;98698.22;5030127;28;20104;-36
2022/11/18 04:15:16;;;;;;;93.55;22.80;;;;;;;8.66;100.00;98700.00;5030080;28;20099;-37
2022/11/18 04:17:42;;;;;;;91.65;19.73;;;;;;;8.68;100.00;98704.06;5030141;28;20135;-41
2022/11/18 04:20:21;;;;;;;68.70;21.25;;;;;;;9.52;100.00;98706.31;5030395;28;20033;-37
2022/11/18 04:22:47;;;;;;;92.75;18.48;;;;;;;9.16;99.46;98708.72;5029839;28;20046;-37
2022/11/18 04:25:13;;;;;;;67.47;18.88;;;;;;;8.98;98.49;98709.50;5029963;28;20532;-36
2022/11/18 04:27:38;;;;;;;93.47;19.50;;;;;;;8.98;99.83;98716.66;5029797;28;20079;-36
2022/11/18 04:30:05;;;;;;;62.03;18.25;;;;;;;8.86;100.00;98711.25;5029579;28;20030;-36
2022/11/18 04:32:31;;;;;;;53.47;18.25;;;;;;;8.63;100.00;98695.94;5029878;28;20039;-36
2022/11/18 04:34:56;;;;;;;170.43;20.75;;;;;;;8.52;100.00;98709.88;5028933;28;20029;-36
2022/11/18 04:37:22;;;;;;;101.22;19.58;;;;;;;8.60;100.00;98713.09;5029257;28;20478;-36
2022/11/18 04:39:47;;;;;;;126.65;21.92;;;;;;;9.28;100.00;98719.44;5029583;28;20377;-36
2022/11/18 04:42:13;;;;;;;79.28;19.27;;;;;;;9.44;100.00;98720.69;5029559;28;20030;-36
2022/11/18 04:44:38;;;;;;;92.35;19.08;;;;;;;9.18;99.79;98711.19;5029470;28;20124;-36
2022/11/18 04:47:05;;;;;;;59.38;17.85;;;;;;;8.62;100.00;98707.56;5028898;28;20068;-37
2022/11/18 04:49:32;;;;;;;90.03;18.38;;;;;;;8.57;100.00;98710.06;5029827;28;20030;-37
2022/11/18 04:51:58;;;;;;;47.45;17.30;;;;;;;8.45;100.00;98717.06;5029761;28;20108;-35
2022/11/18 04:54:24;;;;;;;60.47;21.88;;;;;;;8.59;100.00;98718.63;5029936;28;20458;-37
2022/11/18 04:56:50;;;;;;;64.97;23.85;;;;;;;8.53;100.00;98712.34;5029831;28;20479;-37
2022/11/18 04:59:19;;;;;;;60.08;25.15;;;;;;;8.54;99.91;98716.59;5029844;28;20100;-38
2022/11/18 05:01:45;;;;;;;49.22;25.02;;;;;;;8.53;100.00;98720.28;5029868;28;20026;-37
2022/11/18 05:04:16;;;;;;;54.58;25.77;;;;;;;8.52;100.00;98716.00;5029789;28;20030;-37
2022/11/18 05:06:41;;;;;;;81.35;28.05;;;;;;;8.69;100.00;98715.47;5029546;28;20125;-36
2022/11/18 05:09:07;;;;;;;93.05;29.17;;;;;;;9.37;98.78;98702.19;5029064;28;20151;-36
2022/11/18 05:14:17;;;;;;;63.65;24.98;;;;;;;8.78;97.26;98708.88;5030036;28;20056;-37
2022/11/18 05:16:43;;;;;;;55.42;26.30;;;;;;;8.53;98.74;98699.06;5029570;28;20413;-37
2022/11/18 05:19:09;;;;;;;46.00;25.23;;;;;;;8.44;100.00;98696.91;5029614;28;20025;-37
2022/11/18 05:21:34;;;;;;;121.50;27.83;;;;;;;8.63;100.00;98701.25;5031003;28;20102;-36
2022/11/18 05:24:01;;;;;;;126.22;27.63;;;;;;;8.39;100.00;98697.50;5032832;28;20535;-37
2022/11/18 05:26:27;;;;;;;72.53;30.08;;;;;;;9.48;99.46;98710.44;5031088;28;20088;-36
2022/11/18 05:28:52;;;;;;;62.58;26.75;;;;;;;8.89;98.73;98707.34;5030901;28;20501;-36
2022/11/18 05:31:18;;;;;;;54.60;24.17;;;;;;;8.64;98.68;98708.16;5031894;28;20030;-36
2022/11/18 05:33:44;;;;;;;68.78;25.02;;;;;;;8.42;100.00;98705.06;5032119;28;20029;-37
2022/11/18 05:36:15;;;;;;;68.75;25.73;;;;;;;8.45;100.00;98704.63;5032317;28;20469;-37
2022/11/18 05:38:41;;;;;;;99.10;26.80;;;;;;;8.39;100.00;98710.75;5032247;28;20127;-37
2022/11/18 05:41:07;;;;;;;70.50;25.67;;;;;;;8.36;100.00;98716.50;5032234;28;20029;-37
2022/11/18 05:43:34;;;;;;;60.42;26.55;;;;;;;8.47;100.00;98723.78;5031928;28;20025;-37
2022/11/18 05:46:00;;;;;;;44.85;24.20;;;;;;;8.37;100.00;98718.91;5031696;28;20430;-37
2022/11/18 05:48:26;;;;;;;60.00;28.27;;;;;;;9.13;100.00;98722.44;5030850;28;20029;-37
2022/11/18 05:50:53;;;;;;;93.63;28.75;;;;;;;9.39;100.00;98728.53;5031223;28;20030;-37
2022/11/18 05:53:20;;;;;;;71.93;27.17;;;;;;;9.20;100.00;98738.31;5031218;28;20029;-37
2022/11/18 05:56:12;;;;;;;83.93;25.48;;;;;;;8.97;100.00;98737.09;5030377;28;20025;-36
2022/11/18 05:58:37;;;;;;;;;;;;;;;8.98;100.00;98732.56;5022628;28;20087;-37
2022/11/18 06:01:05;;;;;;;71.60;29.27;;;;;;;8.74;100.00;98732.38;5030285;28;19912;-37
2022/11/18 06:03:36;;;;;;;89.18;30.35;;;;;;;8.74;100.00;98732.38;5030976;28;20026;-36
2022/11/18 06:06:06;;;;;;;94.47;31.58;;;;;;;9.17;100.00;98733.44;5030877;28;20112;-37
2022/11/18 06:08:36;;;;;;;87.60;30.95;;;;;;;9.21;100.00;98724.00;5029815;28;20029;-37
2022/11/18 06:11:02;;;;;;;98.65;29.20;;;;;;;9.39;99.65;98742.59;5030273;28;20117;-35
2022/11/18 06:13:33;;;;;;;106.15;29.73;;;;;;;9.29;100.00;98747.63;5029784;28;20120;-37
2022/11/18 06:15:59;;;;;;;108.20;29.75;;;;;;;8.88;100.00;98742.88;5030619;28;20073;-38
2022/11/18 06:18:30;;;;;;;64.18;30.42;;;;;;;8.97;100.00;98757.50;5029604;28;20021;-36
2022/11/18 06:20:59;;;;;;;65.18;30.38;;;;;;;9.08;100.00;98751.50;5030190;28;20040;-37
2022/11/18 06:23:27;;;;;;;54.22;28.98;;;;;;;9.10;100.00;98740.63;5030088;28;20144;-37
2022/11/18 06:25:53;;;;;;;58.45;29.25;;;;;;;9.09;100.00;98741.69;5030585;28;20037;-37
2022/11/18 06:28:20;;;;;;;62.72;28.90;;;;;;;9.08;100.00;98740.88;5030242;28;20025;-38
2022/11/18 06:30:46;;;;;;;57.42;27.50;;;;;;;9.08;100.00;98734.72;5030341;28;20033;-37
2022/11/18 06:33:11;;;;;;;46.80;26.73;;;;;;;8.94;100.00;98731.38;5030022;28;20525;-36
2022/11/18 06:35:36;;;;;;;68.13;27.08;;;;;;;9.08;100.00;98732.09;5030215;28;20029;-36
2022/11/18 06:38:02;;;;;;;48.97;26.75;;;;;;;9.03;100.00;98732.75;5030450;28;20048;-37
2022/11/18 06:40:28;;;;;;;61.42;27.33;;;;;;;8.99;100.00;98736.88;5030056;28;20033;-37
2022/11/18 06:45:37;;;;;;;53.33;24.95;;;;;;;9.09;100.00;98733.72;5029612;28;20070;-38
2022/11/18 06:48:03;;;;;;;46.17;25.95;;;;;;;9.23;100.00;98737.06;5029545;28;20037;-37
2022/11/18 06:50:29;;;;;;;45.42;25.45;;;;;;;9.20;100.00;98738.31;5030058;28;20569;-38
2022/11/18 06:52:55;;;;;;;58.53;26.27;;;;;;;9.22;100.00;98735.44;5029775;28;20025;-36
2022/11/18 06:55:20;;;;;;;55.05;25.90;;;;;;;9.33;100.00;98735.53;5029802;28;20132;-37
2022/11/18 06:57:46;;;;;;;58.75;25.73;;;;;;;9.43;100.00;98737.66;5029854;28;20209;-37
2022/11/18 07:00:12;;;;;;;57.17;26.45;;;;;;;9.50;100.00;98735.75;5029725;28;20040;-36
2022/11/18 07:02:38;;;;;;;64.20;27.45;;;;;;;9.59;100.00;98731.78;5029939;28;20037;-38
2022/11/18 07:05:05;;;;;;;73.95;26.77;;;;;;;9.70;100.00;98732.88;5029889;28;20037;-36
2022/11/18 07:07:30;;;;;;;60.65;28.00;;;;;;;9.74;100.00;98731.38;5029393;28;20032;-37
2022/11/18 07:09:56;;;;;;;60.35;28.10;;;;;;;9.69;100.00;98735.75;5029736;28;20147;-37
2022/11/18 07:12:21;;;;;;;69.47;29.60;;;;;;;9.75;100.00;98722.41;5030596;28;20048;-36
2022/11/18 07:14:46;;;;;;;68.63;29.75;;;;;;;9.99;100.00;98714.53;5030521;28;20041;-37
2022/11/18 07:17:12;;;;;;;89.95;37.28;;;;;;;10.07;100.00;98713.41;5030378;28;20035;-36
2022/11/18 07:19:39;;;;;;;75.40;33.13;;;;;;;9.96;100.00;98702.50;5030741;28;20108;-37
2022/11/18 07:22:06;;;;;;;82.78;32.70;;;;;;;10.07;100.00;98708.91;5030603;28;20525;-37
2022/11/18 07:24:32;;;;;;;76.70;29.58;;;;;;;10.06;100.00;98711.78;5030220;28;20067;-37
2022/11/18 07:26:58;;;;;;;82.45;29.67;;;;;;;9.98;100.00;98704.94;5030673;28;20032;-37
2022/11/18 07:29:25;;;;;;;88.45;30.50;;;;;;;10.04;100.00;98704.03;5030287;28;20046;-37
2022/11/18 07:31:50;;;;;;;81.72;29.95;;;;;;;10.18;100.00;98721.44;5030246;28;20033;-37
2022/11/18 07:34:16;;;;;;;83.53;29.95;;;;;;;10.39;100.00;98729.16;5030310;28;20029;-37
2022/11/18 07:36:42;;;;;;;81.65;30.83;;;;;;;10.41;100.00;98727.09;5030229;28;20033;-37
2022/11/18 07:39:07;;;;;;;73.65;28.50;;;;;;;10.22;100.00;98727.09;5030538;28;20031;-36
2022/11/18 07:41:34;;;;;;;76.57;29.67;;;;;;;10.29;100.00;98719.84;5029950;28;20021;-38
2022/11/18 07:44:01;;;;;;;80.90;29.15;;;;;;;10.29;99.69;98703.91;5029699;28;20040;-37
2022/11/18 07:46:28;;;;;;;68.22;26.75;;;;;;;10.39;99.99;98735.28;5029982;28;20036;-37
2022/11/18 07:48:56;;;;;;;79.22;30.90;;;;;;;10.43;100.00;98740.97;5030000;28;20037;-37
2022/11/18 07:51:25;;;;;;;76.80;31.50;;;;;;;10.54;99.46;98748.97;5030057;28;20024;-38
2022/11/18 07:53:51;;;;;;;77.03;32.55;;;;;;;10.53;99.09;98742.03;5030023;28;20029;-37
2022/11/18 07:56:17;;;;;;;72.88;31.83;;;;;;;10.57;98.27;98743.22;5030011;28;20061;-37
2022/11/18 07:58:43;;;;;;;71.18;32.60;;;;;;;10.56;97.81;98740.78;5029853;28;20112;-37
2022/11/18 08:01:17;;;;;;;71.65;31.30;;;;;;;10.52;98.10;98736.94;5029788;28;20109;-37
2022/11/18 08:03:44;;;;;;;66.60;30.10;;;;;;;10.30;97.98;98728.63;5029885;28;20029;-41
2022/11/18 08:06:11;;;;;;;65.13;30.77;;;;;;;10.47;97.76;98724.34;5029590;28;20076;-36
2022/11/18 08:08:37;;;;;;;65.78;30.65;;;;;;;10.48;97.08;98725.16;5029429;28;20026;-37
2022/11/18 08:11:05;;;;;;;67.25;30.15;;;;;;;10.57;97.79;98726.44;5029292;28;20076;-37
2022/11/18 08:13:31;;;;;;;65.18;28.92;;;;;;;10.61;97.02;98719.63;5029811;28;20033;-37
2022/11/18 08:15:57;;;;;;;68.30;29.80;;;;;;;10.63;98.22;98727.38;5029525;28;20437;-37
2022/11/18 08:18:23;;;;;;;76.47;32.03;;;;;;;10.63;97.91;98724.72;5029404;28;20029;-36
2022/11/18 08:20:49;;;;;;;84.95;37.90;;;;;;;10.65;97.64;98709.34;5029739;28;20090;-38
2022/11/18 08:23:15;;;;;;;65.78;30.13;;;;;;;10.63;97.95;98725.53;5029200;28;20235;-37
2022/11/18 08:25:43;;;;;;;63.40;28.73;;;;;;;10.77;96.67;98723.47;5028678;28;20045;-37
2022/11/18 08:28:09;;;;;;;67.68;30.13;;;;;;;10.75;96.49;98723.69;5029104;28;20030;-37
2022/11/18 08:30:34;;;;;;;65.50;29.45;;;;;;;10.84;95.65;98726.03;5029169;28;20362;-37
2022/11/18 08:33:00;;;;;;;59.35;27.40;;;;;;;10.72;95.82;98718.84;5029219;28;20037;-37
2022/11/18 08:35:27;;;;;;;65.28;29.52;;;;;;;10.82;96.42;98720.94;5029197;28;20029;-37
2022/11/18 08:37:53;;;;;;;66.65;30.60;;;;;;;10.81;95.83;98721.94;5029404;28;20033;-37
2022/11/18 08:40:19;;;;;;;55.83;27.77;;;;;;;10.80;95.02;98727.53;5028913;28;20029;-37
2022/11/18 08:42:44;;;;;;;63.05;29.80;;;;;;;10.79;96.32;98724.03;5029301;28;20030;-37
2022/11/18 08:45:10;;;;;;;63.13;29.20;;;;;;;10.72;96.13;98723.34;5029648;28;20121;-37
2022/11/18 08:47:36;;;;;;;55.47;29.00;;;;;;;10.94;95.58;98719.06;5029089;28;20133;-38
2022/11/18 08:50:06;;;;;;;59.33;29.13;;;;;;;10.81;96.33;98724.63;5029468;28;20589;-38
2022/11/18 08:52:31;;;;;;;57.25;29.73;;;;;;;10.81;96.48;98721.94;5029772;28;20045;-37
2022/11/18 08:54:57;;;;;;;58.17;29.60;;;;;;;10.91;96.25;98719.56;5029953;28;20401;-38
2022/11/18 08:57:23;;;;;;;61.60;28.80;;;;;;;10.82;96.44;98720.13;5031821;28;20056;-38
2022/11/18 08:59:48;;;;;;;58.30;28.50;;;;;;;10.78;95.36;98716.31;5032748;28;20062;-37
2022/11/18 09:02:22;;;;;;;63.00;28.50;;;;;;;10.87;96.27;98726.38;5032122;28;20040;-37
2022/11/18 09:04:49;;;;;;;57.28;28.88;;;;;;;10.97;94.92;98717.81;5032359;28;20033;-37
2022/11/18 09:07:15;;;;;;;63.20;30.27;;;;;;;11.01;95.21;98704.84;5032062;28;20047;-37
2022/11/18 09:09:40;;;;;;;63.17;30.67;;;;;;;11.19;90.97;98696.72;5032731;28;20033;-36
2022/11/18 09:12:06;;;;;;;67.63;31.33;;;;;;;11.11;92.12;98699.75;5032874;28;20441;-37
2022/11/18 09:14:32;;;;;;;60.35;30.83;;;;;;;11.11;93.10;98683.78;5031684;28;20031;-36
2022/11/18 09:16:57;;;;;;;65.38;31.08;;;;;;;11.13;92.14;98679.84;5031923;28;20049;-37
2022/11/18 09:19:22;;;;;;;62.47;29.98;;;;;;;10.91;93.08;98676.97;5031753;28;20036;-37
2022/11/18 09:21:48;;;;;;;62.53;30.52;;;;;;;11.11;93.48;98678.44;5031513;28;20025;-37
2022/11/18 09:24:14;;;;;;;71.43;32.85;;;;;;;11.17;94.29;98671.38;5031239;28;20472;-37
2022/11/18 09:26:40;;;;;;;64.97;31.80;;;;;;;11.20;93.25;98669.06;5030775;28;20572;-37
2022/11/18 09:29:05;;;;;;;72.90;33.08;;;;;;;11.18;92.93;98662.38;5031674;28;20117;-37
2022/11/18 09:31:31;;;;;;;75.68;33.85;;;;;;;11.37;92.62;98657.72;5031441;28;20027;-37
2022/11/18 09:34:00;;;;;;;77.35;34.78;;;;;;;11.16;93.71;98657.28;5031811;28;20029;-41
2022/11/18 09:36:26;;;;;;;74.53;33.33;;;;;;;11.21;94.70;98667.22;5030629;28;20029;-37
2022/11/18 09:38:52;;;;;;;64.75;31.95;;;;;;;11.08;94.30;98658.44;5028488;28;20460;-38
2022/11/18 09:41:17;;;;;;;71.85;32.63;;;;;;;11.23;94.57;98649.97;5031273;28;20028;-37
2022/11/18 09:43:54;;;;;;;70.35;32.97;;;;;;;11.13;94.44;98647.06;5032030;28;20033;-37
2022/11/18 09:46:45;;;;;;;69.85;32.53;;;;;;;11.05;95.41;98642.91;5031991;28;20210;-37
2022/11/18 09:49:15;;;;;;;71.25;32.15;;;;;;;10.97;95.89;98637.97;5031418;28;20088;-37
2022/11/18 09:51:44;;;;;;;83.82;31.10;;;;;;;10.91;96.69;98630.91;5032024;28;20021;-36
2022/11/18 09:54:21;;;;;;;72.00;31.52;;;;;;;11.20;95.32;98613.16;5031851;28;20037;-37
2022/11/18 09:56:49;;;;;;;71.82;31.63;;;;;;;10.99;96.21;98616.44;5031683;28;20029;-38
2022/11/18 09:59:17;;;;;;;86.93;31.05;;;;;;;10.69;98.10;98610.19;5031952;28;20032;-37
2022/11/18 10:01:44;;;;;;;85.72;30.67;;;;;;;10.93;97.78;98604.88;5030767;28;20099;-38
2022/11/18 10:04:18;;;;;;;100.00;51.92;;;;;;;11.01;96.46;98595.72;5031966;28;20053;-38
2022/11/18 10:06:44;;;;;;;88.32;28.40;;;;;;;11.19;96.66;98610.72;5031704;28;20041;-38
2022/11/18 10:09:29;;;;;;;74.85;28.73;;;;;;;11.02;97.10;98608.75;5032473;28;20037;-37
2022/11/18 10:12:07;;;;;;;62.88;29.60;;;;;;;11.33;96.44;98610.22;5032170;28;20116;-38
2022/11/18 10:14:54;;;;;;;67.28;29.20;;;;;;;11.31;96.07;98607.00;5032333;28;20048;-37
2022/11/18 10:17:37;;;;;;;65.63;28.77;;;;;;;11.38;96.48;98608.69;5031915;28;20029;-37
2022/11/18 10:20:43;;;;;;;70.55;29.15;;;;;;;11.52;96.31;98594.06;5031832;28;20037;-37
2022/11/18 10:23:30;;;;;;;73.93;29.25;;;;;;;11.52;95.94;98599.41;5031510;28;20426;-37
2022/11/18 10:25:56;;;;;;;57.22;27.88;;;;;;;11.46;95.24;98601.16;5030925;28;20120;-37
2022/11/18 10:28:30;;;;;;;74.57;28.48;;;;;;;11.26;97.89;98603.41;5031876;28;20029;-37
2022/11/18 10:31:08;;;;;;;74.90;29.05;;;;;;;11.46;97.28;98592.34;5031696;28;20547;-37
2022/11/18 10:33:33;;;;;;;89.63;28.25;;;;;;;11.52;97.01;98575.44;5031848;28;20048;-38
2022/11/18 10:36:11;;;;;;;90.00;32.22;;;;;;;11.82;95.92;98577.00;5031665;28;20495;-38
2022/11/18 10:38:36;;;;;;;99.68;32.70;;;;;;;11.69;96.11;98564.78;5031638;28;20029;-38
2022/11/18 10:41:05;;;;;;;81.68;31.40;;;;;;;11.71;96.66;98566.19;5031424;28;20021;-37
2022/11/18 10:43:50;;;;;;;99.30;32.38;;;;;;;11.81;97.15;98573.53;5031494;28;20033;-38
2022/11/18 10:46:26;;;;;;;82.88;32.63;;;;;;;11.71;96.78;98565.38;5031090;28;20036;-37
2022/11/18 10:49:07;;;;;;;85.15;33.78;;;;;;;11.72;97.45;98559.78;5031036;28;20491;-37
2022/11/18 10:51:33;;;;;;;95.65;38.40;;;;;;;11.50;98.25;98562.34;5031095;28;20033;-37
2022/11/18 10:54:20;;;;;;;105.55;42.55;;;;;;;11.55;98.54;98545.63;5031021;28;20029;-36
2022/11/18 10:56:50;;;;;;;106.60;40.95;;;;;;;11.42;98.09;98561.91;5030955;28;20029;-38
2022/11/18 10:59:25;;;;;;;92.95;38.65;;;;;;;11.50;98.06;98566.88;5031057;28;20228;-37
2022/11/18 11:01:59;;;;;;;109.40;38.28;;;;;;;11.51;97.47;98563.13;5030975;28;20029;-36
2022/11/18 11:04:26;;;;;;;88.32;37.65;;;;;;;11.33;99.63;98558.81;5031131;28;20140;-37
2022/11/18 11:06:52;;;;;;;92.45;37.70;;;;;;;11.47;98.18;98549.47;5030763;28;20025;-38
2022/11/18 11:09:25;;;;;;;89.40;37.22;;;;;;;11.50;97.15;98561.53;5030979;28;20056;-37
2022/11/18 11:11:56;;;;;;;92.13;36.00;;;;;;;11.65;97.13;98551.16;5031171;28;20029;-36
2022/11/18 11:14:30;;;;;;;82.00;35.05;;;;;;;11.62;96.88;98546.28;5031095;28;20116;-37
2022/11/18 11:17:05;;;;;;;86.15;34.85;;;;;;;11.58;98.12;98555.81;5030798;28;20241;-38
2022/11/18 11:19:40;;;;;;;85.18;35.05;;;;;;;11.63;97.13;98531.09;5029559;28;20049;-38
2022/11/18 11:22:08;;;;;;;83.35;34.50;;;;;;;11.74;97.37;98523.03;5030884;28;20040;-37
2022/11/18 11:24:34;;;;;;;91.85;36.00;;;;;;;11.82;96.39;98529.88;5030318;28;20156;-37
2022/11/18 11:27:22;;;;;;;86.28;35.30;;;;;;;11.93;97.13;98526.31;5030869;28;20033;-37
2022/11/18 11:30:18;;;;;;;79.70;34.63;;;;;;;11.70;97.75;98524.56;5030812;28;20066;-38
2022/11/18 11:33:10;;;;;;;148.27;80.65;;;;;;;11.99;98.06;98531.75;5030019;28;20041;-44
2022/11/18 11:35:47;;;;;;;;;;;;;;;11.99;96.43;98521.09;5028875;28;20140;-37
2022/11/18 11:38:31;;;;;;;84.47;35.92;;;;;;;12.13;95.05;98506.38;5030758;28;19909;-38